createdAt,value
2022-08-12T00:00:36.318Z,0
2022-08-12T00:02:37.250Z,0
2022-08-12T00:04:39.089Z,0
2022-08-12T00:06:40.977Z,0
2022-08-12T00:08:41.927Z,0
2022-08-12T00:10:43.396Z,0
2022-08-12T00:12:44.569Z,0
2022-08-12T00:14:46.213Z,0
2022-08-12T00:16:57.081Z,0
2022-08-12T00:18:49.552Z,0
2022-08-12T00:19:33.298Z,0
2022-08-12T00:21:35.888Z,0
2022-08-12T00:23:36.484Z,0
2022-08-12T00:25:51.140Z,0
2022-08-12T00:27:43.767Z,0
2022-08-12T00:29:41.777Z,0
2022-08-12T00:31:41.766Z,0
2022-08-12T00:33:51.836Z,0
2022-08-12T00:35:44.618Z,0
2022-08-12T00:37:46.137Z,0
2022-08-12T00:39:47.651Z,0
2022-08-12T00:43:50.537Z,0
2022-08-12T00:45:51.586Z,0
2022-08-12T00:47:53.127Z,0
2022-08-12T00:51:55.334Z,0
2022-08-12T00:53:57.189Z,0
2022-08-12T00:55:58.591Z,0.14
2022-08-12T00:57:59.785Z,0
2022-08-12T01:00:00.730Z,0
2022-08-12T01:02:10.852Z,0
2022-08-12T01:04:03.008Z,0
2022-08-12T01:06:04.211Z,0
2022-08-12T01:08:05.605Z,0
2022-08-12T01:10:06.680Z,0
2022-08-12T01:12:08.337Z,0
2022-08-12T01:14:09.680Z,0
2022-08-12T01:16:11.318Z,0
2022-08-12T01:18:12.387Z,0.14
2022-08-12T01:20:13.756Z,0.561
2022-08-12T01:22:14.817Z,1.123
2022-08-12T01:24:23.216Z,0
2022-08-12T01:26:17.872Z,0
2022-08-12T01:28:19.654Z,0
2022-08-12T01:30:20.682Z,0
2022-08-12T01:32:22.328Z,0
2022-08-12T01:34:28.825Z,0
2022-08-12T01:36:25.255Z,0
2022-08-12T01:38:29.586Z,0.14
2022-08-12T01:40:31.953Z,1.825
2022-08-12T01:44:30.788Z,0.14
2022-08-12T01:46:32.459Z,0
2022-08-12T01:48:33.762Z,0
2022-08-12T01:50:35.245Z,0
2022-08-12T01:52:36.265Z,0
2022-08-12T01:54:37.566Z,0
2022-08-12T01:56:38.637Z,0
2022-08-12T01:58:39.606Z,0
2022-08-12T02:02:41.745Z,0
2022-08-12T02:04:43.482Z,0
2022-08-12T02:06:44.975Z,0
2022-08-12T02:10:49.025Z,0
2022-08-12T02:12:48.794Z,0
2022-08-12T02:14:50.441Z,0
2022-08-12T02:16:52.349Z,0
2022-08-12T02:18:53.893Z,0
2022-08-12T02:20:55.533Z,0
2022-08-12T02:24:58.156Z,0
2022-08-12T02:26:59.830Z,0
2022-08-12T02:29:01.747Z,0
2022-08-12T02:31:03.511Z,0
2022-08-12T02:33:04.875Z,0
2022-08-12T02:35:06.669Z,0
2022-08-12T02:37:08.264Z,0
2022-08-12T02:39:09.749Z,0
2022-08-12T02:41:11.125Z,0
2022-08-12T02:43:12.668Z,0
2022-08-12T02:45:14.456Z,0
2022-08-12T02:47:18.185Z,0
2022-08-12T02:49:17.201Z,0
2022-08-12T02:51:19.056Z,0
2022-08-12T02:53:20.603Z,0
2022-08-12T02:57:24.068Z,0
2022-08-12T02:59:25.343Z,0
2022-08-12T03:01:27.150Z,0
2022-08-12T03:03:28.130Z,0
2022-08-12T03:05:29.515Z,0
2022-08-12T03:07:36.550Z,0
2022-08-12T03:09:32.738Z,0
2022-08-12T03:11:34.747Z,0
2022-08-12T03:13:35.275Z,0
2022-08-12T03:15:36.222Z,0
2022-08-12T03:17:37.726Z,0
2022-08-12T03:20:09.043Z,0
2022-08-12T03:21:52.500Z,0
2022-08-12T03:23:40.848Z,0
2022-08-12T03:25:42.099Z,0
2022-08-12T03:27:43.916Z,0
2022-08-12T03:29:50.220Z,0
2022-08-12T03:31:45.879Z,0
2022-08-12T03:33:48.219Z,0
2022-08-12T03:35:48.435Z,0
2022-08-12T03:37:49.606Z,0
2022-08-12T03:39:51.087Z,0
2022-08-12T03:41:52.491Z,0
2022-08-12T03:43:54.164Z,0
2022-08-12T03:45:55.457Z,0
2022-08-12T03:47:57.136Z,0
2022-08-12T03:49:58.686Z,0
2022-08-12T03:51:59.904Z,0
2022-08-12T03:54:01.321Z,0
2022-08-12T03:56:02.603Z,0
2022-08-12T03:58:04.434Z,0
2022-08-12T04:00:05.375Z,0
2022-08-12T04:02:06.794Z,0
2022-08-12T04:04:08.324Z,0
2022-08-12T04:06:09.998Z,0
2022-08-12T04:08:11.499Z,0
2022-08-12T04:10:13.407Z,0
2022-08-12T04:12:14.414Z,0
2022-08-12T04:14:15.801Z,0
2022-08-12T04:16:17.256Z,0
2022-08-12T04:18:18.992Z,0
2022-08-12T04:20:19.950Z,0
2022-08-12T04:22:21.067Z,0
2022-08-12T04:24:22.938Z,0
2022-08-12T04:26:24.633Z,0
2022-08-12T04:28:25.985Z,0
2022-08-12T04:30:31.735Z,0
2022-08-12T04:32:29.106Z,0
2022-08-12T04:34:30.331Z,1.263
2022-08-12T04:36:31.814Z,0
2022-08-12T04:38:33.380Z,0
2022-08-12T04:40:34.694Z,0
2022-08-12T04:42:36.126Z,2.106
2022-08-12T04:44:37.760Z,1.404
2022-08-12T04:46:38.796Z,0
2022-08-12T04:48:39.900Z,0
2022-08-12T04:50:41.796Z,0
2022-08-12T04:52:42.971Z,0.982
2022-08-12T04:56:45.906Z,0
2022-08-12T04:58:50.693Z,0
2022-08-12T05:00:48.447Z,0
2022-08-12T05:02:50.352Z,0
2022-08-12T05:04:51.769Z,0
2022-08-12T05:06:53.019Z,0
2022-08-12T05:08:54.622Z,0.702
2022-08-12T05:10:56.069Z,0.842
2022-08-12T05:12:56.989Z,0
2022-08-12T05:14:58.716Z,0
2022-08-12T05:17:00.381Z,0.702
2022-08-12T05:19:01.559Z,0.14
2022-08-12T05:21:02.742Z,0
2022-08-12T05:23:10.126Z,0.561
2022-08-12T05:25:05.595Z,0.561
2022-08-12T05:27:06.865Z,0
2022-08-12T05:29:10.861Z,0.28
2022-08-12T05:31:09.959Z,1.263
2022-08-12T05:33:11.424Z,0.28
2022-08-12T05:35:12.948Z,0
2022-08-12T05:37:14.367Z,0
2022-08-12T05:39:15.944Z,0
2022-08-12T05:41:17.374Z,0
2022-08-12T05:43:19.157Z,0.982
2022-08-12T05:45:20.921Z,0
2022-08-12T05:47:22.357Z,0
2022-08-12T05:49:23.471Z,0
2022-08-12T05:51:24.626Z,0.421
2022-08-12T05:53:25.713Z,0
2022-08-12T05:55:30.806Z,0
2022-08-12T05:57:28.362Z,0
2022-08-12T05:59:29.233Z,0.421
2022-08-12T06:02:08.600Z,0.421
2022-08-12T06:03:31.772Z,0
2022-08-12T06:05:33.273Z,0
2022-08-12T06:07:37.449Z,0.702
2022-08-12T06:09:35.602Z,0.702
2022-08-12T06:11:37.027Z,0.421
2022-08-12T06:13:53.259Z,0
2022-08-12T06:15:39.693Z,0
2022-08-12T06:20:22.164Z,0.561
2022-08-12T06:21:43.339Z,0
2022-08-12T06:23:44.554Z,0
2022-08-12T06:25:45.952Z,0.702
2022-08-12T06:28:06.030Z,0.702
2022-08-12T06:30:07.738Z,0.702
2022-08-12T06:31:49.816Z,0.702
2022-08-12T06:33:56.281Z,0.14
2022-08-12T06:35:52.485Z,0.561
2022-08-12T06:37:56.555Z,0.842
2022-08-12T06:39:54.674Z,0.561
2022-08-12T06:42:02.354Z,0.982
2022-08-12T06:44:04.340Z,0.421
2022-08-12T06:45:58.608Z,0.842
2022-08-12T06:47:59.695Z,1.544
2022-08-12T06:50:00.747Z,0.28
2022-08-12T06:52:02.415Z,0.702
2022-08-12T06:54:03.439Z,0.421
2022-08-12T06:56:07.187Z,0
2022-08-12T06:58:10.268Z,0
2022-08-12T07:00:06.921Z,1.544
2022-08-12T07:02:07.985Z,0.702
2022-08-12T07:04:33.631Z,1.263
2022-08-12T07:04:53.366Z,1.263
2022-08-12T07:06:54.485Z,1.404
2022-08-12T07:08:56.067Z,0.842
2022-08-12T07:14:59.196Z,0.561
2022-08-12T07:17:00.410Z,0.28
2022-08-12T07:19:01.323Z,0.28
2022-08-12T07:21:02.525Z,0.421
2022-08-12T07:25:05.078Z,1.965
2022-08-12T07:27:06.703Z,0
2022-08-12T07:29:07.533Z,1.404
2022-08-12T07:31:08.585Z,2.246
2022-08-12T07:33:09.880Z,2.527
2022-08-12T07:35:11.425Z,3.51
2022-08-12T07:37:12.339Z,5.756
2022-08-12T07:39:13.509Z,2.948
2022-08-12T07:41:15.967Z,2.386
2022-08-12T07:43:15.942Z,4.633
2022-08-12T07:45:17.136Z,1.965
2022-08-12T07:47:18.424Z,3.088
2022-08-12T07:49:19.835Z,3.369
2022-08-12T07:51:24.660Z,4.352
2022-08-12T07:53:22.748Z,2.246
2022-08-12T07:55:24.244Z,4.212
2022-08-12T07:57:25.982Z,2.527
2022-08-12T07:59:27.223Z,6.598
2022-08-12T08:01:28.058Z,3.65
2022-08-12T08:03:28.997Z,3.65
2022-08-12T08:05:30.536Z,5.475
2022-08-12T08:07:31.898Z,6.739
2022-08-12T08:09:33.033Z,5.194
2022-08-12T08:13:36.025Z,8.143
2022-08-12T08:16:01.568Z,2.386
2022-08-12T08:17:38.423Z,4.773
2022-08-12T08:19:48.636Z,5.054
2022-08-12T08:21:40.395Z,4.212
2022-08-12T08:23:41.884Z,5.896
2022-08-12T08:25:43.393Z,7.862
2022-08-12T08:27:45.036Z,7.16
2022-08-12T08:29:46.070Z,5.475
2022-08-12T08:31:47.477Z,7.441
2022-08-12T08:34:04.458Z,6.458
2022-08-12T08:35:49.237Z,6.318
2022-08-12T08:37:50.184Z,7.16
2022-08-12T08:39:51.687Z,5.896
2022-08-12T08:42:13.705Z,12.214
2022-08-12T08:43:54.360Z,6.598
2022-08-12T08:45:55.394Z,13.197
2022-08-12T08:48:00.166Z,6.177
2022-08-12T08:51:59.264Z,6.739
2022-08-12T08:54:00.094Z,7.02
2022-08-12T08:56:04.870Z,6.037
2022-08-12T08:58:02.694Z,6.177
2022-08-12T09:00:04.025Z,6.037
2022-08-12T09:02:05.156Z,6.879
2022-08-12T09:04:21.937Z,7.3
2022-08-12T09:06:07.351Z,9.968
2022-08-12T09:08:11.953Z,7.862
2022-08-12T09:10:15.705Z,7.02
2022-08-12T09:12:13.161Z,6.739
2022-08-12T09:14:18.576Z,8.424
2022-08-12T09:16:14.335Z,8.283
2022-08-12T09:18:15.787Z,5.756
2022-08-12T09:20:17.611Z,5.475
2022-08-12T09:22:20.544Z,8.002
2022-08-12T09:24:20.003Z,8.845
2022-08-12T09:26:21.366Z,5.194
2022-08-12T09:28:22.607Z,6.318
2022-08-12T09:30:40.986Z,4.352
2022-08-12T09:32:39.804Z,2.808
2022-08-12T09:34:32.103Z,6.318
2022-08-12T09:36:30.883Z,6.177
2022-08-12T09:38:29.882Z,7.862
2022-08-12T09:40:58.310Z,3.369
2022-08-12T09:42:35.299Z,7.16
2022-08-12T09:44:38.759Z,8.143
2022-08-12T09:46:34.427Z,8.424
2022-08-12T09:48:36.228Z,7.862
2022-08-12T09:50:36.121Z,8.002
2022-08-12T09:52:37.381Z,10.53
2022-08-12T09:54:38.826Z,8.283
2022-08-12T09:56:57.820Z,7.862
2022-08-12T09:58:50.946Z,6.879
2022-08-12T10:00:48.550Z,6.037
2022-08-12T10:04:51.300Z,7.02
2022-08-12T10:06:54.520Z,6.037
2022-08-12T10:08:52.199Z,7.02
2022-08-12T10:10:48.970Z,9.266
2022-08-12T10:13:06.585Z,5.194
2022-08-12T10:14:52.699Z,5.194
2022-08-12T10:16:52.418Z,7.16
2022-08-12T10:20:54.696Z,7.3
2022-08-12T10:22:55.971Z,6.318
2022-08-12T10:24:56.718Z,1.263
2022-08-12T10:26:58.197Z,9.406
2022-08-12T10:29:02.277Z,6.739
2022-08-12T10:31:01.375Z,4.071
2022-08-12T10:35:02.819Z,7.02
2022-08-12T10:37:10.826Z,7.02
2022-08-12T10:39:07.273Z,7.581
2022-08-12T10:41:07.138Z,9.687
2022-08-12T10:43:08.313Z,6.318
2022-08-12T10:45:09.886Z,6.879
2022-08-12T10:47:25.877Z,4.633
2022-08-12T10:50:01.903Z,4.352
2022-08-12T10:51:52.174Z,2.948
2022-08-12T10:53:19.912Z,5.896
2022-08-12T10:55:16.665Z,7.16
2022-08-12T10:57:49.301Z,5.616
2022-08-12T10:59:20.081Z,6.598
2022-08-12T11:01:26.689Z,8.985
2022-08-12T11:04:21.585Z,8.845
2022-08-12T11:07:02.221Z,10.249
2022-08-12T11:08:33.043Z,4.492
2022-08-12T11:09:42.235Z,6.739
2022-08-12T11:11:27.803Z,1.684
2022-08-12T11:13:39.794Z,4.773
2022-08-12T11:15:33.599Z,8.845
2022-08-12T11:17:33.910Z,5.896
2022-08-12T11:19:33.250Z,5.194
2022-08-12T11:21:56.194Z,5.756
2022-08-12T11:23:37.274Z,7.581
2022-08-12T11:25:55.608Z,9.828
2022-08-12T11:27:38.659Z,10.108
2022-08-12T11:30:00.687Z,2.948
2022-08-12T11:31:56.516Z,2.246
2022-08-12T11:34:04.028Z,3.369
2022-08-12T11:35:44.234Z,5.475
2022-08-12T11:37:58.564Z,9.266
2022-08-12T11:41:48.045Z,3.79
2022-08-12T11:45:53.058Z,6.739
2022-08-12T11:47:51.020Z,13.899
2022-08-12T11:49:52.109Z,8.143
2022-08-12T11:51:57.488Z,2.106
2022-08-12T11:53:58.652Z,5.756
2022-08-12T11:55:55.122Z,3.931
2022-08-12T11:58:09.419Z,8.424
2022-08-12T12:02:04.633Z,8.002
2022-08-12T12:03:59.685Z,3.088
2022-08-12T12:06:01.357Z,5.616
2022-08-12T12:08:37.017Z,5.475
2022-08-12T12:10:03.657Z,5.054
2022-08-12T12:12:04.925Z,6.598
2022-08-12T12:14:11.038Z,5.475
2022-08-12T12:16:08.003Z,6.739
2022-08-12T12:18:08.865Z,4.633
2022-08-12T12:20:10.436Z,2.948
2022-08-12T12:22:11.565Z,1.404
2022-08-12T12:24:12.958Z,3.369
2022-08-12T12:26:34.732Z,3.65
2022-08-12T12:28:19.934Z,7.3
2022-08-12T12:30:20.118Z,5.475
2022-08-12T12:32:18.368Z,2.948
2022-08-12T12:34:30.574Z,4.914
2022-08-12T12:36:24.292Z,3.51
2022-08-12T12:38:25.094Z,6.037
2022-08-12T12:40:28.298Z,3.65
2022-08-12T12:42:42.410Z,6.177
2022-08-12T12:44:30.399Z,4.352
2022-08-12T12:46:27.905Z,1.404
2022-08-12T12:48:28.891Z,1.684
2022-08-12T12:50:35.659Z,6.879
2022-08-12T12:52:31.357Z,8.845
2022-08-12T12:54:32.643Z,4.212
2022-08-12T12:56:34.362Z,6.458
2022-08-12T12:58:34.893Z,4.633
2022-08-12T13:00:36.051Z,4.352
2022-08-12T13:02:37.501Z,5.616
2022-08-12T13:04:39.034Z,9.406
2022-08-12T13:06:39.961Z,5.616
2022-08-12T13:08:41.708Z,5.054
2022-08-12T13:10:43.064Z,7.722
2022-08-12T13:12:43.860Z,7.441
2022-08-12T13:14:45.194Z,8.143
2022-08-12T13:16:46.389Z,8.143
2022-08-12T13:18:47.987Z,5.756
2022-08-12T13:20:49.638Z,5.335
2022-08-12T13:22:50.974Z,6.598
2022-08-12T13:26:52.704Z,4.914
2022-08-12T13:28:56.055Z,4.773
2022-08-12T13:30:54.968Z,9.687
2022-08-12T13:32:56.630Z,8.564
2022-08-12T13:35:04.117Z,8.704
2022-08-12T13:36:58.451Z,6.318
2022-08-12T13:38:59.686Z,4.352
2022-08-12T13:41:00.720Z,8.564
2022-08-12T13:43:02.321Z,5.896
2022-08-12T13:45:04.025Z,10.249
2022-08-12T13:49:06.370Z,10.389
2022-08-12T13:49:53.485Z,7.16
2022-08-12T13:51:51.531Z,6.739
2022-08-12T13:53:55.164Z,4.492
2022-08-12T13:55:59.972Z,3.088
2022-08-12T13:57:55.611Z,3.369
2022-08-12T14:00:00.366Z,8.985
2022-08-12T14:01:57.677Z,5.756
2022-08-12T14:03:59.128Z,8.283
2022-08-12T14:06:00.614Z,3.088
2022-08-12T14:10:03.255Z,7.581
2022-08-12T14:12:05.122Z,9.126
2022-08-12T14:14:12.713Z,1.825
2022-08-12T14:16:06.776Z,9.968
2022-08-12T14:18:08.439Z,8.845
2022-08-12T14:20:09.929Z,2.386
2022-08-12T14:22:10.614Z,8.704
2022-08-12T14:24:11.994Z,6.458
2022-08-12T14:26:16.012Z,9.968
2022-08-12T14:28:15.383Z,10.67
2022-08-12T14:30:23.963Z,6.318
2022-08-12T14:32:18.169Z,9.687
2022-08-12T14:34:19.323Z,6.318
2022-08-12T14:36:20.494Z,6.739
2022-08-12T14:38:25.501Z,5.896
2022-08-12T14:40:25.948Z,7.862
2022-08-12T14:42:26.039Z,11.793
2022-08-12T14:45:00.210Z,8.143
2022-08-12T14:46:28.034Z,2.808
2022-08-12T14:48:28.412Z,7.862
2022-08-12T14:50:34.615Z,7.3
2022-08-12T14:52:54.894Z,4.773
2022-08-12T14:57:05.903Z,7.16
2022-08-12T14:58:36.411Z,7.441
2022-08-12T15:00:37.252Z,3.229
2022-08-12T15:02:38.222Z,8.704
2022-08-12T15:04:39.529Z,7.441
2022-08-12T15:06:45.176Z,10.67
2022-08-12T15:08:41.928Z,9.547
2022-08-12T15:10:46.160Z,5.475
2022-08-12T15:12:44.359Z,6.879
2022-08-12T15:14:45.883Z,3.79
2022-08-12T15:16:47.369Z,3.088
2022-08-12T15:18:55.302Z,5.896
2022-08-12T15:20:49.495Z,4.914
2022-08-12T15:22:53.577Z,3.931
2022-08-12T15:24:52.424Z,4.914
2022-08-12T15:26:53.791Z,8.704
2022-08-12T15:28:55.327Z,9.406
2022-08-12T15:30:56.657Z,4.492
2022-08-12T15:34:59.242Z,7.3
2022-08-12T15:37:00.227Z,10.108
2022-08-12T15:39:01.658Z,5.756
2022-08-12T15:41:02.622Z,10.108
2022-08-12T15:45:08.536Z,6.598
2022-08-12T15:47:06.666Z,8.283
2022-08-12T15:49:16.561Z,8.985
2022-08-12T15:51:08.996Z,5.756
2022-08-12T15:53:14.136Z,4.914
2022-08-12T15:55:11.904Z,5.194
2022-08-12T15:57:13.580Z,7.722
2022-08-12T15:59:14.504Z,5.616
2022-08-12T16:01:15.876Z,4.633
2022-08-12T16:03:19.332Z,2.386
2022-08-12T16:05:18.841Z,4.914
2022-08-12T16:07:19.716Z,2.246
2022-08-12T16:09:21.850Z,6.318
2022-08-12T16:11:22.883Z,8.143
2022-08-12T16:13:25.391Z,6.037
2022-08-12T16:15:24.880Z,2.808
2022-08-12T16:17:25.919Z,4.914
2022-08-12T16:20:01.994Z,6.739
2022-08-12T16:21:50.881Z,5.475
2022-08-12T16:23:36.488Z,4.492
2022-08-12T16:25:51.785Z,2.948
2022-08-12T16:27:31.660Z,4.492
2022-08-12T16:29:38.466Z,2.808
2022-08-12T16:31:34.709Z,1.684
2022-08-12T16:33:35.890Z,6.177
2022-08-12T16:35:37.357Z,3.51
2022-08-12T16:38:25.983Z,1.825
2022-08-12T16:39:40.146Z,4.352
2022-08-12T16:43:41.795Z,5.194
2022-08-12T16:46:04.657Z,3.229
2022-08-12T16:47:44.229Z,7.02
2022-08-12T16:49:45.225Z,3.65
2022-08-12T16:51:47.452Z,6.458
2022-08-12T16:53:47.754Z,3.79
2022-08-12T16:55:50.729Z,2.808
2022-08-12T16:57:50.321Z,6.037
2022-08-12T16:59:53.808Z,3.369
2022-08-12T17:01:52.729Z,3.088
2022-08-12T17:03:54.696Z,7.16
2022-08-12T17:05:54.406Z,5.194
2022-08-12T17:07:55.449Z,8.985
2022-08-12T17:09:56.615Z,6.879
2022-08-12T17:11:58.290Z,9.968
2022-08-12T17:16:05.302Z,12.074
2022-08-12T17:18:15.643Z,9.687
2022-08-12T17:20:30.065Z,9.547
2022-08-12T17:22:04.645Z,8.985
2022-08-12T17:26:07.197Z,8.283
2022-08-12T17:28:08.687Z,1.825
2022-08-12T17:30:10.219Z,5.616
2022-08-12T17:32:11.539Z,7.3
2022-08-12T17:34:17.120Z,5.335
2022-08-12T17:36:13.413Z,6.879
2022-08-12T17:38:15.146Z,5.616
2022-08-12T17:40:35.369Z,1.965
2022-08-12T17:42:32.430Z,4.212
2022-08-12T17:44:18.866Z,6.598
2022-08-12T17:46:23.763Z,5.054
2022-08-12T17:48:21.315Z,2.808
2022-08-12T17:52:24.371Z,2.808
2022-08-12T17:54:25.761Z,3.65
2022-08-12T17:56:26.517Z,4.914
2022-08-12T17:58:35.407Z,5.896
2022-08-12T18:00:29.252Z,3.229
2022-08-12T18:02:30.928Z,2.386
2022-08-12T18:04:35.153Z,2.246
2022-08-12T18:06:32.471Z,1.263
2022-08-12T18:08:33.956Z,4.633
2022-08-12T18:10:34.835Z,3.79
2022-08-12T18:12:35.919Z,3.088
2022-08-12T18:14:38.180Z,4.071
2022-08-12T18:16:38.757Z,2.386
2022-08-12T18:18:39.856Z,0.421
2022-08-12T18:20:44.705Z,2.527
2022-08-12T18:22:42.676Z,2.386
2022-08-12T18:24:44.001Z,1.684
2022-08-12T18:26:45.629Z,2.808
2022-08-12T18:28:48.086Z,0.14
2022-08-12T18:30:52.093Z,0.842
2022-08-12T18:32:54.343Z,0.702
2022-08-12T18:34:52.839Z,0.561
2022-08-12T18:36:54.120Z,0
2022-08-12T18:38:55.994Z,0
2022-08-12T18:40:54.983Z,0
2022-08-12T18:42:57.099Z,0.14
2022-08-12T18:44:57.283Z,1.404
2022-08-12T18:46:58.930Z,2.527
2022-08-12T18:49:16.619Z,0.982
2022-08-12T18:51:01.407Z,1.965
2022-08-12T18:53:03.031Z,1.263
2022-08-12T18:57:05.785Z,0.702
2022-08-12T18:59:06.865Z,1.123
2022-08-12T19:01:08.588Z,0.702
2022-08-12T19:03:23.497Z,2.527
2022-08-12T19:07:11.923Z,1.684
2022-08-12T19:09:13.751Z,0.28
2022-08-12T19:11:14.985Z,0.982
2022-08-12T19:13:21.366Z,0.14
2022-08-12T19:17:18.656Z,0.982
2022-08-12T19:19:20.033Z,0
2022-08-12T19:21:21.444Z,0.28
2022-08-12T19:25:55.283Z,2.386
2022-08-12T19:27:25.817Z,0.842
2022-08-12T19:29:27.390Z,0
2022-08-12T19:31:45.572Z,2.246
2022-08-12T19:33:30.316Z,1.965
2022-08-12T19:35:54.192Z,2.808
2022-08-12T19:37:38.304Z,1.825
2022-08-12T19:39:33.813Z,1.123
2022-08-12T19:41:43.136Z,1.965
2022-08-12T19:43:40.974Z,2.246
2022-08-12T19:45:42.483Z,1.965
2022-08-12T19:47:40.181Z,0.842
2022-08-12T19:49:41.066Z,2.246
2022-08-12T19:51:42.627Z,1.965
2022-08-12T19:53:57.121Z,0.982
2022-08-12T19:55:45.645Z,2.106
2022-08-12T19:57:54.846Z,0
2022-08-12T20:00:03.885Z,0.842
2022-08-12T20:02:01.891Z,2.106
2022-08-12T20:03:57.518Z,0.28
2022-08-12T20:06:04.074Z,0
2022-08-12T20:07:57.194Z,2.246
2022-08-12T20:09:56.127Z,1.544
2022-08-12T20:12:10.944Z,1.684
2022-08-12T20:14:00.925Z,2.246
2022-08-12T20:16:00.293Z,1.825
2022-08-12T20:18:01.447Z,1.544
2022-08-12T20:20:17.654Z,1.404
2022-08-12T20:22:04.060Z,0.702
2022-08-12T20:24:05.850Z,1.263
2022-08-12T20:26:07.199Z,0.842
2022-08-12T20:28:08.330Z,1.544
2022-08-12T20:30:08.934Z,1.544
2022-08-12T20:32:10.025Z,2.527
2022-08-12T20:34:12.166Z,1.825
2022-08-12T20:34:55.577Z,1.965
2022-08-12T20:37:04.577Z,1.263
2022-08-12T20:38:58.454Z,1.404
2022-08-12T20:40:59.700Z,2.948
2022-08-12T20:43:01.238Z,1.965
2022-08-12T20:45:03.017Z,1.965
2022-08-12T20:47:04.027Z,3.088
2022-08-12T20:49:14.564Z,0.561
2022-08-12T20:51:05.863Z,4.071
2022-08-12T20:53:07.581Z,6.037
2022-08-12T20:55:15.458Z,1.404
2022-08-12T20:57:10.646Z,3.79
2022-08-12T20:59:14.797Z,1.825
2022-08-12T21:01:15.369Z,2.948
2022-08-12T21:03:14.784Z,2.527
2022-08-12T21:05:19.641Z,1.404
2022-08-12T21:07:17.403Z,0
2022-08-12T21:09:22.590Z,1.123
2022-08-12T21:11:20.641Z,1.404
2022-08-12T21:13:22.526Z,2.106
2022-08-12T21:15:30.885Z,0.14
2022-08-12T21:17:33.845Z,1.123
2022-08-12T21:19:51.752Z,0.702
2022-08-12T21:21:40.266Z,2.667
2022-08-12T21:23:30.697Z,1.544
2022-08-12T21:25:36.227Z,0.982
2022-08-12T21:27:58.464Z,2.246
2022-08-12T21:29:36.089Z,1.825
2022-08-12T21:32:35.784Z,0.982
2022-08-12T21:33:45.757Z,2.948
2022-08-12T21:35:39.991Z,2.948
2022-08-12T21:37:39.561Z,3.369
2022-08-12T21:41:41.764Z,2.667
2022-08-12T21:43:42.942Z,3.229
2022-08-12T21:45:57.845Z,1.544
2022-08-12T21:47:45.180Z,2.667
2022-08-12T21:49:53.574Z,2.386
2022-08-12T21:51:49.886Z,3.229
2022-08-12T21:54:06.483Z,2.386
2022-08-12T21:55:51.373Z,2.246
2022-08-12T21:58:02.341Z,2.386
2022-08-12T21:59:54.212Z,2.106
2022-08-12T22:01:55.043Z,0.421
2022-08-12T22:04:02.620Z,2.948
2022-08-12T22:05:57.574Z,1.825
2022-08-12T22:07:59.348Z,2.246
2022-08-12T22:10:00.869Z,2.808
2022-08-12T22:12:02.450Z,2.527
2022-08-12T22:14:08.060Z,1.263
2022-08-12T22:16:05.638Z,1.684
2022-08-12T22:18:06.766Z,0.702
2022-08-12T22:20:08.146Z,0.982
2022-08-12T22:22:09.166Z,0.28
2022-08-12T22:24:10.084Z,1.825
2022-08-12T22:26:11.472Z,1.965
2022-08-12T22:28:12.709Z,1.684
2022-08-12T22:30:16.187Z,0.702
2022-08-12T22:32:15.617Z,2.667
2022-08-12T22:34:18.137Z,1.263
2022-08-12T22:36:21.376Z,2.667
2022-08-12T22:38:19.370Z,0.982
2022-08-12T22:40:20.871Z,1.544
2022-08-12T22:42:21.810Z,0
2022-08-12T22:44:23.455Z,2.667
2022-08-12T22:46:26.578Z,1.965
2022-08-12T22:48:26.453Z,0.561
2022-08-12T22:50:28.245Z,0.14
2022-08-12T22:52:28.950Z,0.842
2022-08-12T22:54:35.310Z,1.544
2022-08-12T22:56:31.629Z,0.702
2022-08-12T22:58:32.666Z,0
2022-08-12T23:00:33.840Z,0
2022-08-12T23:02:35.299Z,0
2022-08-12T23:04:36.789Z,0
2022-08-12T23:06:38.238Z,0
2022-08-12T23:08:39.603Z,0
2022-08-12T23:10:41.331Z,0
2022-08-12T23:12:46.679Z,0
2022-08-12T23:14:44.120Z,0.14
2022-08-12T23:16:45.127Z,0
2022-08-12T23:18:48.187Z,0
2022-08-12T23:20:50.066Z,0
2022-08-12T23:22:55.929Z,0
2022-08-12T23:24:54.291Z,2.246
2022-08-12T23:26:51.863Z,2.527
2022-08-12T23:28:53.325Z,1.123
2022-08-12T23:30:53.955Z,0.561
2022-08-12T23:32:59.505Z,1.825
2022-08-12T23:34:57.305Z,0.421
2022-08-12T23:36:58.309Z,0
2022-08-12T23:39:01.871Z,0
2022-08-12T23:41:01.756Z,0
2022-08-12T23:43:02.788Z,1.965
2022-08-12T23:45:09.099Z,0
2022-08-12T23:47:05.174Z,0.14
2022-08-12T23:49:26.755Z,1.544
2022-08-12T23:51:21.874Z,1.684
2022-08-12T23:53:17.308Z,0.421
2022-08-12T23:55:24.381Z,0
2022-08-12T23:57:12.478Z,0
2022-08-12T23:59:16.586Z,0
